Time;durP1;ratioP1;P1;durP2;ratioP2;P2;SDS_P1;SDS_P2;PMS_P1;PMS_P2;Temp;Humidity;BMP_temperature;BMP_pressure;BME280_temperature;BME280_humidity;BME280_pressure;Samples;Min_cycle;Max_cycle;Signal;HPM_P1;HPM_P2
2021/04/01 00:00:32;;;;;;;32.10;19.92;;;;;;;13.94;52.31;101997.22;5159594;27;20034;-41
2021/04/01 00:02:57;;;;;;;29.33;19.58;;;;;;;13.80;52.97;102000.09;5157424;27;20498;-41
2021/04/01 00:05:24;;;;;;;28.63;19.15;;;;;;;13.79;52.25;102000.31;5158640;27;20030;-41
2021/04/01 00:07:50;;;;;;;29.75;19.80;;;;;;;13.72;53.10;101994.94;5158240;27;20030;-41
2021/04/01 00:10:18;;;;;;;32.42;19.38;;;;;;;13.68;52.28;101991.00;5158431;27;20097;-41
2021/04/01 00:12:43;;;;;;;28.50;18.58;;;;;;;13.62;52.59;101992.75;5158075;27;20102;-41
2021/04/01 00:15:11;;;;;;;28.57;19.10;;;;;;;13.67;52.58;101988.53;5158684;27;20471;-41
2021/04/01 00:17:37;;;;;;;27.65;19.10;;;;;;;13.59;52.81;101990.47;5157843;27;20280;-41
2021/04/01 00:20:08;;;;;;;30.42;19.30;;;;;;;13.56;52.80;101988.19;5158150;27;20043;-46
2021/04/01 00:22:33;;;;;;;30.50;19.25;;;;;;;13.58;52.23;101979.81;5158185;27;20047;-41
2021/04/01 00:24:58;;;;;;;31.73;20.77;;;;;;;13.51;52.09;101985.31;5157891;27;20474;-41
2021/04/01 00:27:24;;;;;;;28.67;19.30;;;;;;;13.53;52.72;101990.53;5158185;27;20027;-41
2021/04/01 00:29:50;;;;;;;29.05;19.67;;;;;;;13.52;53.37;101984.28;5158680;27;20023;-43
2021/04/01 00:32:15;;;;;;;30.87;20.40;;;;;;;13.63;52.53;101983.53;5158063;27;20100;-42
2021/04/01 00:34:40;;;;;;;29.58;19.67;;;;;;;13.52;52.31;101984.28;5158039;27;20463;-42
2021/04/01 00:37:06;;;;;;;29.47;19.27;;;;;;;13.51;52.56;101988.03;5158087;27;20110;-42
2021/04/01 00:39:31;;;;;;;28.03;18.53;;;;;;;13.50;52.96;101980.94;5157267;27;20110;-41
2021/04/01 00:41:56;;;;;;;27.50;18.10;;;;;;;13.44;53.59;101973.66;5157770;27;20312;-41
2021/04/01 00:44:22;;;;;;;27.57;19.53;;;;;;;13.31;52.38;101981.94;5158493;27;20091;-40
2021/04/01 00:46:48;;;;;;;34.63;20.83;;;;;;;13.38;53.20;101977.28;5158121;27;20034;-40
2021/04/01 00:49:14;;;;;;;28.55;19.73;;;;;;;13.33;53.67;101975.22;5158029;27;20612;-40
2021/04/01 00:51:39;;;;;;;31.50;20.77;;;;;;;13.35;54.37;101975.84;5157747;27;20023;-41
2021/04/01 00:54:05;;;;;;;27.85;19.55;;;;;;;13.36;53.74;101979.38;5158016;27;20450;-40
2021/04/01 00:56:31;;;;;;;30.40;20.40;;;;;;;13.35;54.31;101967.69;5157596;27;20061;-40
2021/04/01 00:58:56;;;;;;;33.13;20.23;;;;;;;13.43;54.32;101968.47;5157661;27;20095;-40
2021/04/01 01:03:57;;;;;;;30.50;19.60;;;;;;;13.36;54.92;101953.03;5158311;27;20121;-40
2021/04/01 01:06:22;;;;;;;30.08;20.30;;;;;;;13.40;55.12;101954.25;5157689;27;20109;-40
2021/04/01 01:08:47;;;;;;;30.00;19.93;;;;;;;13.37;54.36;101945.72;5157698;27;20058;-40
2021/04/01 01:11:13;;;;;;;30.53;20.33;;;;;;;13.53;53.79;101952.50;5156177;27;20054;-41
2021/04/01 01:13:38;;;;;;;31.17;19.92;;;;;;;13.41;54.17;101944.22;5157886;27;20106;-41
2021/04/01 01:16:05;;;;;;;29.23;19.25;;;;;;;13.48;53.85;101947.72;5157784;27;20031;-41
2021/04/01 01:18:30;;;;;;;29.90;19.73;;;;;;;13.34;54.72;101949.72;5157131;27;20095;-41
2021/04/01 01:20:57;;;;;;;30.30;19.83;;;;;;;13.37;54.14;101956.59;5157137;27;20019;-41
2021/04/01 01:23:25;;;;;;;28.65;19.85;;;;;;;13.33;53.76;101955.38;5157516;27;20023;-41
2021/04/01 01:25:51;;;;;;;30.73;20.15;;;;;;;13.25;53.07;101953.78;5157629;27;20022;-41
2021/04/01 01:28:16;;;;;;;29.73;19.60;;;;;;;13.22;53.77;101961.53;5156734;27;20138;-41
2021/04/01 01:30:42;;;;;;;31.37;20.23;;;;;;;13.34;52.77;101960.59;5157343;27;20098;-41
2021/04/01 01:33:08;;;;;;;29.67;19.77;;;;;;;13.20;53.71;101963.59;5155660;27;20499;-41
2021/04/01 01:35:36;;;;;;;26.60;19.48;;;;;;;13.13;53.50;101964.50;5156730;27;20256;-41
2021/04/01 01:38:07;;;;;;;30.20;20.60;;;;;;;13.14;53.27;101955.28;5156819;27;20404;-41
2021/04/01 01:40:35;;;;;;;28.85;20.48;;;;;;;13.17;54.30;101954.00;5157033;27;20098;-41
2021/04/01 01:43:03;;;;;;;27.70;19.52;;;;;;;13.21;53.97;101959.84;5156322;27;20023;-41
2021/04/01 01:45:29;;;;;;;28.40;19.70;;;;;;;13.08;54.28;101956.19;5157167;27;20351;-42
2021/04/01 01:47:56;;;;;;;29.20;19.92;;;;;;;13.00;54.67;101952.91;5157401;27;20138;-41
2021/04/01 01:50:23;;;;;;;31.35;19.83;;;;;;;12.96;55.07;101954.38;5156552;27;20045;-41
2021/04/01 01:52:48;;;;;;;30.15;21.20;;;;;;;12.93;55.53;101947.50;5156500;27;20038;-41
2021/04/01 01:55:14;;;;;;;27.65;19.80;;;;;;;12.88;55.37;101952.75;5156554;27;20382;-41
2021/04/01 01:57:41;;;;;;;29.10;19.58;;;;;;;12.89;55.78;101952.56;5156562;27;20055;-42
2021/04/01 02:00:13;;;;;;;29.20;19.35;;;;;;;12.96;54.89;101955.22;5155216;27;20499;-41
2021/04/01 02:02:38;;;;;;;28.92;19.52;;;;;;;12.99;55.09;101957.50;5155996;27;20026;-41
2021/04/01 02:05:07;;;;;;;31.03;19.73;;;;;;;13.01;54.34;101958.09;5156847;27;20030;-41
2021/04/01 02:07:33;;;;;;;30.52;18.50;;;;;;;12.94;54.66;101965.47;5156210;27;20138;-41
2021/04/01 02:09:58;;;;;;;30.10;20.00;;;;;;;12.98;54.44;101957.69;5156131;27;20464;-41
2021/04/01 02:12:24;;;;;;;31.27;19.23;;;;;;;12.92;55.40;101956.69;5156192;27;20054;-42
2021/04/01 02:14:49;;;;;;;32.40;20.30;;;;;;;12.85;55.02;101954.03;5156694;27;20037;-41
2021/04/01 02:17:21;;;;;;;28.17;19.10;;;;;;;12.84;55.00;101956.97;5156010;27;20459;-41
2021/04/01 02:19:47;;;;;;;28.40;19.88;;;;;;;12.83;55.71;101958.00;5156056;27;20491;-41
2021/04/01 02:22:12;;;;;;;32.78;20.60;;;;;;;12.88;55.06;101960.91;5155962;27;20060;-41
2021/04/01 02:24:37;;;;;;;28.93;19.50;;;;;;;12.78;56.02;101958.66;5156436;27;20030;-41
2021/04/01 02:27:03;;;;;;;29.08;19.77;;;;;;;12.70;55.87;101964.38;5156408;27;20049;-42
2021/04/01 02:29:28;;;;;;;30.83;19.55;;;;;;;12.74;56.00;101959.34;5155944;27;20030;-41
2021/04/01 02:31:54;;;;;;;31.10;20.63;;;;;;;12.55;56.47;101961.13;5154354;27;20548;-41
2021/04/01 02:34:20;;;;;;;30.73;19.67;;;;;;;12.58;56.16;101961.50;5155830;27;20256;-41
2021/04/01 02:36:45;;;;;;;28.90;19.15;;;;;;;12.57;55.99;101957.13;5154823;27;20035;-41
2021/04/01 02:39:12;;;;;;;29.98;20.63;;;;;;;12.56;56.42;101963.59;5156240;27;20054;-41
2021/04/01 02:41:38;;;;;;;28.00;20.02;;;;;;;12.63;56.77;101961.66;5154217;27;20034;-41
2021/04/01 02:44:03;;;;;;;32.72;20.38;;;;;;;12.59;57.74;101956.91;5155224;27;20027;-41
2021/04/01 02:46:29;;;;;;;31.73;20.90;;;;;;;12.55;56.64;101959.22;5155425;27;20109;-41
2021/04/01 02:48:54;;;;;;;29.43;20.53;;;;;;;12.42;57.43;101958.47;5155534;27;20019;-41
2021/04/01 02:51:20;;;;;;;32.60;20.30;;;;;;;12.44;57.55;101954.47;5155792;27;20738;-41
2021/04/01 02:53:45;;;;;;;29.75;20.13;;;;;;;12.31;57.66;101949.13;5155711;27;20521;-41
2021/04/01 02:56:10;;;;;;;32.23;21.57;;;;;;;12.19;58.08;101954.38;5155115;27;20442;-41
2021/04/01 02:58:37;;;;;;;31.60;20.30;;;;;;;12.14;58.44;101950.66;5155219;27;20085;-41
2021/04/01 03:01:03;;;;;;;27.10;18.45;;;;;;;12.03;57.81;101957.56;5155126;27;20041;-41
2021/04/01 03:03:33;;;;;;;29.85;20.05;;;;;;;11.95;58.80;101955.09;5155075;27;20019;-41
2021/04/01 03:06:00;;;;;;;30.80;20.40;;;;;;;11.90;58.94;101955.72;5155366;27;20054;-41
2021/04/01 03:08:25;;;;;;;30.17;19.77;;;;;;;11.91;59.31;101965.53;5155144;27;20018;-41
2021/04/01 03:10:51;;;;;;;29.47;21.23;;;;;;;11.98;59.84;101965.50;5155729;27;20027;-41
2021/04/01 03:13:16;;;;;;;31.30;20.50;;;;;;;11.99;58.92;101968.00;5156012;27;20030;-41
2021/04/01 03:15:42;;;;;;;36.23;21.50;;;;;;;11.94;59.72;101964.28;5154909;27;20034;-41
2021/04/01 03:18:07;;;;;;;29.77;20.37;;;;;;;12.00;59.52;101958.00;5155433;27;20030;-41
2021/04/01 03:20:32;;;;;;;31.80;20.27;;;;;;;11.87;59.42;101971.59;5155715;27;20249;-41
2021/04/01 03:22:58;;;;;;;31.47;20.47;;;;;;;11.87;59.71;101961.59;5155634;27;20027;-41
2021/04/01 03:25:23;;;;;;;27.27;19.60;;;;;;;11.90;59.69;101966.56;5155398;27;20033;-41
2021/04/01 03:27:48;;;;;;;31.83;21.13;;;;;;;11.88;59.67;101974.09;5155654;27;20026;-41
2021/04/01 03:30:15;;;;;;;30.67;19.73;;;;;;;11.70;60.40;101980.13;5155411;27;20067;-41
2021/04/01 03:32:43;;;;;;;32.70;21.00;;;;;;;11.72;60.74;101977.22;5154930;27;20023;-41
2021/04/01 03:35:11;;;;;;;32.55;21.90;;;;;;;11.72;61.44;101971.81;5155600;27;20352;-41
2021/04/01 03:37:37;;;;;;;30.92;20.60;;;;;;;11.74;60.40;101975.97;5154899;27;20079;-41
2021/04/01 03:40:03;;;;;;;;;;;;;;;11.88;58.07;101982.22;5156236;27;20035;-41
2021/04/01 03:42:28;;;;;;;29.33;20.42;;;;;;;11.78;59.59;101987.22;5155442;27;20312;-41
2021/04/01 03:44:54;;;;;;;30.50;20.13;;;;;;;11.73;60.03;101977.00;5155515;27;20023;-41
2021/04/01 03:47:20;;;;;;;30.77;21.15;;;;;;;11.75;60.39;101987.63;5155416;27;20415;-41
2021/04/01 03:49:45;;;;;;;36.70;23.35;;;;;;;11.68;60.11;101984.09;5154296;27;20392;-41
2021/04/01 03:52:11;;;;;;;34.47;21.87;;;;;;;11.70;60.61;102000.97;5155179;27;20033;-41
2021/04/01 03:54:36;;;;;;;32.50;21.80;;;;;;;11.53;60.58;102000.59;5154877;27;20029;-41
2021/04/01 03:57:02;;;;;;;34.97;21.07;;;;;;;11.47;61.16;102001.44;5154655;27;20053;-41
2021/04/01 03:59:54;;;;;;;32.92;21.85;;;;;;;11.37;61.16;102001.84;5155360;27;20019;-42
2021/04/01 04:13:11;;;;;;;37.75;24.10;;;;;;;11.40;60.41;102000.56;5154619;27;20077;-41
2021/04/01 04:15:36;;;;;;;36.67;22.83;;;;;;;11.33;59.53;102004.13;5156174;27;20034;-41
2021/04/01 04:18:03;;;;;;;33.50;23.67;;;;;;;11.30;59.69;101999.13;5158447;27;20114;-41
2021/04/01 04:20:28;;;;;;;35.05;23.65;;;;;;;11.19;60.19;102002.44;5159125;27;20054;-41
2021/04/01 04:22:53;;;;;;;34.27;23.07;;;;;;;11.18;61.19;102003.50;5158209;27;20019;-41
2021/04/01 04:25:19;;;;;;;37.03;23.30;;;;;;;11.18;60.12;102010.78;5158638;27;20275;-41
2021/04/01 04:28:00;;;;;;;36.30;23.00;;;;;;;11.23;60.29;102000.16;5158195;27;20023;-41
2021/04/01 04:30:26;;;;;;;31.55;21.98;;;;;;;11.15;60.83;102009.31;5158375;27;20054;-41
2021/04/01 04:32:53;;;;;;;;;;;;;;;11.28;58.95;102003.91;5158364;27;20027;-41
2021/04/01 04:35:18;;;;;;;32.95;22.42;;;;;;;10.95;60.17;102009.28;5159230;27;19907;-41
2021/04/01 04:37:43;;;;;;;36.15;23.30;;;;;;;10.99;60.70;102015.94;5157737;27;20027;-41
2021/04/01 04:40:09;;;;;;;36.07;22.67;;;;;;;10.92;61.00;102014.25;5158416;27;20022;-41
2021/04/01 04:42:35;;;;;;;35.10;22.10;;;;;;;10.78;60.54;102016.09;5157418;27;20023;-41
2021/04/01 04:45:01;;;;;;;36.05;23.25;;;;;;;10.82;61.35;102012.78;5156918;27;20087;-41
2021/04/01 04:47:26;;;;;;;36.53;23.00;;;;;;;10.78;61.57;102002.56;5157597;27;20018;-41
2021/04/01 04:49:52;;;;;;;37.90;23.55;;;;;;;10.64;62.11;102011.66;5157954;27;20105;-41
2021/04/01 04:52:20;;;;;;;32.23;21.93;;;;;;;10.70;61.54;102008.19;5157598;27;20026;-41
2021/04/01 04:54:45;;;;;;;37.05;23.08;;;;;;;10.63;62.63;102010.00;5158445;27;20019;-41
2021/04/01 04:57:20;;;;;;;36.27;22.43;;;;;;;10.63;62.33;102001.91;5157417;27;20069;-41
2021/04/01 05:05:00;;;;;;;37.75;22.75;;;;;;;10.68;61.91;102012.94;5157776;27;20037;-41
2021/04/01 05:07:26;;;;;;;34.28;23.10;;;;;;;10.69;62.17;102004.63;5157128;27;20106;-41
2021/04/01 05:09:53;;;;;;;32.92;22.75;;;;;;;10.61;62.36;102006.69;5157508;27;20026;-41
2021/04/01 05:12:18;;;;;;;35.70;23.23;;;;;;;10.61;62.64;102012.94;5157643;27;20023;-41
2021/04/01 05:14:44;;;;;;;37.00;23.10;;;;;;;10.54;61.95;102012.91;5157397;27;20377;-42
2021/04/01 05:17:11;;;;;;;39.00;23.43;;;;;;;10.58;62.79;102016.03;5157878;27;20019;-42
2021/04/01 05:19:39;;;;;;;37.60;23.83;;;;;;;10.58;63.28;102024.97;5157169;27;20279;-43
2021/04/01 05:24:36;;;;;;;32.17;21.52;;;;;;;10.46;62.75;102032.00;5157103;27;20050;-46
2021/04/01 05:29:34;;;;;;;33.30;21.63;;;;;;;10.51;63.37;102024.13;5157342;27;20037;-41
2021/04/01 05:32:02;;;;;;;32.30;22.45;;;;;;;10.56;63.05;102032.47;5156897;27;20034;-42
2021/04/01 05:34:28;;;;;;;35.40;22.02;;;;;;;10.66;62.75;102042.06;5157516;27;20446;-42
2021/04/01 05:36:55;;;;;;;35.28;22.48;;;;;;;10.60;63.15;102035.59;5156487;27;20367;-42
2021/04/01 05:39:26;;;;;;;32.63;21.80;;;;;;;10.65;62.93;102037.72;5156779;27;20091;-42
2021/04/01 05:41:52;;;;;;;34.45;21.60;;;;;;;10.61;63.43;102042.69;5157469;27;20022;-42
2021/04/01 05:44:33;;;;;;;36.95;23.10;;;;;;;10.59;63.36;102036.66;5156961;27;20022;-42
2021/04/01 05:47:12;;;;;;;36.35;23.63;;;;;;;10.67;63.76;102032.91;5156679;27;20023;-42
2021/04/01 06:00:43;;;;;;;36.17;23.42;;;;;;;10.62;63.05;102040.81;5145422;27;20038;-42
2021/04/01 06:03:47;;;;;;;34.58;22.80;;;;;;;10.73;63.47;102040.22;5156417;27;20022;-42
2021/04/01 06:06:05;;;;;;;34.90;24.00;;;;;;;10.82;63.82;102036.28;5153328;27;20501;-42
2021/04/01 06:08:38;;;;;;;37.10;24.30;;;;;;;10.84;63.61;102036.94;5155011;27;20033;-40
2021/04/01 06:11:03;;;;;;;38.33;24.75;;;;;;;10.80;62.67;102044.63;5157043;27;20079;-41
2021/04/01 06:13:31;;;;;;;37.22;24.65;;;;;;;10.98;62.75;102045.91;5156435;27;20102;-41
2021/04/01 06:16:01;;;;;;;40.08;24.17;;;;;;;11.06;62.32;102054.69;5155732;27;20157;-41
2021/04/01 06:18:27;;;;;;;38.83;24.40;;;;;;;11.13;61.76;102062.84;5155791;27;20026;-41
2021/04/01 06:20:52;;;;;;;37.90;25.05;;;;;;;11.10;62.38;102065.94;5156649;27;20041;-41
2021/04/01 06:23:29;;;;;;;37.67;24.60;;;;;;;11.04;61.42;102062.19;5155998;27;20015;-42
2021/04/01 06:25:57;;;;;;;38.58;23.63;;;;;;;11.19;60.87;102058.47;5156262;27;20079;-41
2021/04/01 06:28:49;;;;;;;39.72;24.73;;;;;;;11.27;61.83;102056.41;5155864;27;20058;-42
2021/04/01 06:31:20;;;;;;;36.72;24.00;;;;;;;11.30;60.93;102071.41;5156585;27;20027;-41
2021/04/01 06:33:49;;;;;;;36.53;23.75;;;;;;;11.41;61.50;102067.25;5155682;27;20027;-41
2021/04/01 06:36:25;;;;;;;36.05;23.27;;;;;;;11.47;60.72;102061.00;5155655;27;20034;-41
2021/04/01 06:38:50;;;;;;;37.22;23.17;;;;;;;11.59;61.13;102060.16;5154690;27;20019;-41
2021/04/01 06:41:28;;;;;;;39.70;24.67;;;;;;;11.63;60.45;102073.31;5155915;27;20053;-41
2021/04/01 06:44:12;;;;;;;37.38;24.52;;;;;;;11.73;60.40;102068.31;5155524;27;20101;-41
2021/04/01 06:46:44;;;;;;;38.10;24.60;;;;;;;11.82;61.09;102086.88;5155833;27;20041;-41
2021/04/01 06:49:33;;;;;;;40.95;23.75;;;;;;;11.94;60.47;102081.66;5156200;27;20022;-41
2021/04/01 06:52:08;;;;;;;42.97;25.23;;;;;;;12.04;59.84;102092.06;5155406;27;20023;-41
2021/04/01 06:54:37;;;;;;;37.13;24.27;;;;;;;12.11;59.49;102091.03;5154737;27;20347;-41
2021/04/01 06:59:55;;;;;;;38.17;23.63;;;;;;;12.29;59.39;102100.38;5155211;27;20043;-41
2021/04/01 07:04:50;;;;;;;40.88;23.88;;;;;;;12.49;59.79;102093.06;5155908;27;20035;-40
2021/04/01 07:07:18;;;;;;;37.67;23.33;;;;;;;12.55;59.38;102110.34;5155279;27;20114;-41
2021/04/01 07:12:29;;;;;;;37.17;21.88;;;;;;;12.67;58.73;102105.91;5155765;27;20489;-41
2021/04/01 07:15:03;;;;;;;38.03;22.35;;;;;;;12.65;58.94;102099.06;5155144;27;20101;-40
2021/04/01 07:17:40;;;;;;;37.30;22.55;;;;;;;12.73;59.05;102104.22;5155204;27;20026;-41
2021/04/01 07:47:42;;;;;;;;;;;;;;;13.79;58.83;102100.91;5091994;28;20511;-40
2021/04/01 07:50:21;;;;;;;57.83;28.38;;;;;;;13.83;59.33;102099.41;5093387;28;19999;-40
2021/04/01 07:52:56;;;;;;;50.00;28.38;;;;;;;13.91;58.49;102112.75;5095401;28;20032;-41
2021/04/01 07:55:34;;;;;;;58.72;30.13;;;;;;;13.96;58.43;102104.75;5094990;28;20040;-41
2021/04/01 07:58:40;;;;;;;56.35;30.92;;;;;;;13.99;58.29;102107.00;5094964;28;20055;-41
2021/04/01 08:01:09;;;;;;;53.45;29.65;;;;;;;14.07;57.91;102109.44;5093998;28;20162;-41
2021/04/01 08:06:10;;;;;;;54.95;31.35;;;;;;;14.18;57.36;102126.91;5094568;28;20051;-40
2021/04/01 08:08:38;;;;;;;59.55;31.48;;;;;;;14.24;57.18;102120.56;5094772;28;20111;-40
2021/04/01 08:11:06;;;;;;;54.58;29.88;;;;;;;14.36;57.31;102126.94;5132513;27;20167;-41
2021/04/01 08:13:35;;;;;;;54.25;29.77;;;;;;;14.46;56.36;102121.00;5157156;27;20031;-41
2021/04/01 08:16:08;;;;;;;51.83;28.88;;;;;;;14.58;56.10;102127.38;5158915;27;20027;-41
2021/04/01 08:18:37;;;;;;;54.58;30.63;;;;;;;14.52;55.88;102131.00;5158635;27;20029;-41
2021/04/01 08:21:06;;;;;;;52.30;29.30;;;;;;;14.59;56.48;102137.22;5158641;27;20030;-41
2021/04/01 08:23:37;;;;;;;52.78;30.45;;;;;;;14.62;55.85;102131.31;5158585;27;20029;-40
2021/04/01 08:34:09;;;;;;;56.15;32.25;;;;;;;14.82;56.09;102146.56;5158109;27;20038;-41
2021/04/01 08:36:40;;;;;;;52.58;31.73;;;;;;;14.83;55.77;102146.34;5158223;27;20109;-41
2021/04/01 08:39:06;;;;;;;59.35;34.13;;;;;;;14.84;55.88;102149.91;5157999;27;20027;-40
2021/04/01 08:41:34;;;;;;;58.72;35.38;;;;;;;14.88;56.54;102145.66;5158252;27;20034;-41
2021/04/01 08:44:28;;;;;;;61.03;34.83;;;;;;;14.86;56.59;102142.34;5158406;27;20074;-41
2021/04/01 08:47:15;;;;;;;59.70;35.10;;;;;;;14.88;56.72;102151.09;5158143;27;20030;-41
2021/04/01 08:49:47;;;;;;;60.70;35.22;;;;;;;15.00;56.38;102145.75;5158103;27;20076;-41
2021/04/01 08:52:49;;;;;;;65.35;38.58;;;;;;;15.13;55.67;102154.59;5157921;27;20061;-41
2021/04/01 08:55:16;;;;;;;61.40;38.00;;;;;;;15.18;55.30;102154.72;5158457;27;20030;-41
2021/04/01 08:58:00;;;;;;;63.10;39.53;;;;;;;15.32;55.22;102151.78;5157828;27;20054;-41
2021/04/01 09:00:28;;;;;;;63.13;38.70;;;;;;;15.32;55.04;102154.53;5157204;27;20035;-41
2021/04/01 09:02:54;;;;;;;67.05;40.55;;;;;;;15.42;55.65;102152.06;5157263;27;20033;-41
2021/04/01 09:05:21;;;;;;;71.07;41.85;;;;;;;15.44;54.70;102145.34;5157663;27;20054;-41
2021/04/01 09:07:50;;;;;;;62.90;40.38;;;;;;;15.55;55.07;102151.88;5157463;27;20030;-41
2021/04/01 09:10:25;;;;;;;65.32;41.10;;;;;;;15.63;55.33;102142.56;5157772;27;20026;-40
2021/04/01 09:18:44;;;;;;;72.13;44.58;;;;;;;15.84;54.71;102149.38;5053675;28;20033;-41
2021/04/01 09:21:10;;;;;;;68.13;42.65;;;;;;;15.82;54.60;102151.53;5054040;28;20047;-41
2021/04/01 09:23:41;;;;;;;68.55;43.80;;;;;;;15.84;54.18;102152.94;5053108;28;20037;-41
2021/04/01 09:26:10;;;;;;;69.82;44.25;;;;;;;15.82;54.06;102156.97;5053086;28;20450;-41
2021/04/01 09:28:38;;;;;;;69.03;42.50;;;;;;;15.82;54.32;102151.53;5052848;28;20573;-40
2021/04/01 09:31:06;;;;;;;69.82;44.80;;;;;;;15.90;54.33;102153.91;5053065;28;20037;-41
2021/04/01 09:33:33;;;;;;;68.53;45.85;;;;;;;15.87;54.59;102159.84;5052786;28;20561;-41
2021/04/01 09:36:10;;;;;;;68.10;43.08;;;;;;;16.01;54.43;102165.91;5053067;28;20033;-41
2021/04/01 09:38:39;;;;;;;66.70;44.78;;;;;;;16.10;54.06;102164.47;5052602;28;20477;-41
2021/04/01 09:41:05;;;;;;;68.68;45.47;;;;;;;16.29;54.04;102157.00;5052525;28;20040;-41
2021/04/01 09:43:31;;;;;;;68.65;44.15;;;;;;;16.34;52.94;102160.69;5052841;28;20033;-42
2021/04/01 09:46:09;;;;;;;66.47;45.78;;;;;;;16.40;52.44;102165.22;5053125;28;20103;-41
2021/04/01 09:48:39;;;;;;;68.45;45.35;;;;;;;16.48;52.32;102161.28;5052579;28;20041;-41
2021/04/01 09:51:16;;;;;;;71.25;46.47;;;;;;;16.48;52.16;102167.56;5052647;28;20430;-41
2021/04/01 09:53:49;;;;;;;70.82;45.45;;;;;;;16.61;52.51;102169.25;5089849;28;20431;-41
2021/04/01 09:56:22;;;;;;;70.13;45.72;;;;;;;16.55;51.99;102161.19;5156828;27;20031;-41
2021/04/01 09:58:50;;;;;;;61.05;40.70;;;;;;;16.65;51.76;102167.69;5156595;27;20042;-41
2021/04/01 10:01:33;;;;;;;62.58;44.78;;;;;;;16.65;51.59;102166.88;5156452;27;20027;-41
2021/04/01 10:04:25;;;;;;;69.57;45.65;;;;;;;16.68;51.44;102172.66;5156398;27;20027;-41
2021/04/01 10:06:51;;;;;;;65.38;44.33;;;;;;;16.69;51.38;102177.06;5156638;27;20378;-41
2021/04/01 10:09:17;;;;;;;65.97;44.65;;;;;;;16.71;51.07;102176.81;5156330;27;20106;-41
2021/04/01 10:11:44;;;;;;;66.50;44.08;;;;;;;16.86;51.15;102165.44;5156749;27;20018;-41
2021/04/01 10:14:13;;;;;;;65.65;44.80;;;;;;;16.76;51.48;102173.41;5154957;27;20026;-41
2021/04/01 10:16:58;;;;;;;62.97;44.13;;;;;;;16.86;50.89;102169.00;5154422;27;20035;-41
2021/04/01 10:19:33;;;;;;;59.80;43.25;;;;;;;16.82;50.89;102177.91;5156053;27;20023;-41
2021/04/01 10:21:59;;;;;;;62.78;44.10;;;;;;;16.87;49.85;102180.75;5155616;27;20408;-41
2021/04/01 10:24:33;;;;;;;;;;;;;;;17.04;48.99;102170.75;5156374;27;20062;-41
2021/04/01 10:32:41;;;;;;;65.60;45.25;;;;;;;16.84;50.24;102181.25;5091040;28;20438;-41
2021/04/01 10:35:11;;;;;;;71.43;48.65;;;;;;;16.82;50.49;102180.63;5090942;28;20081;-41
2021/04/01 10:37:45;;;;;;;69.18;47.58;;;;;;;16.84;51.23;102186.72;5091820;28;20096;-41
2021/04/01 10:40:11;;;;;;;61.25;44.70;;;;;;;17.00;50.35;102194.16;5092023;28;20040;-41
2021/04/01 10:42:36;;;;;;;65.93;44.92;;;;;;;17.07;49.12;102196.72;5091582;28;20031;-41
2021/04/01 10:45:11;;;;;;;70.65;48.53;;;;;;;17.11;48.90;102189.72;5092021;28;20042;-41
2021/04/01 10:47:57;;;;;;;68.80;48.85;;;;;;;17.14;49.98;102197.44;5091591;28;20032;-41
2021/04/01 10:50:26;;;;;;;72.70;50.63;;;;;;;17.05;49.67;102199.72;5091780;28;20051;-41
2021/04/01 10:52:53;;;;;;;69.45;47.03;;;;;;;17.16;50.40;102200.75;5091516;28;20101;-41
2021/04/01 10:55:28;;;;;;;66.55;46.72;;;;;;;17.18;49.79;102207.66;5092045;28;20116;-41
2021/04/01 10:58:05;;;;;;;65.03;47.42;;;;;;;17.01;50.11;102197.72;5091406;28;20066;-41
2021/04/01 11:00:30;;;;;;;63.80;47.17;;;;;;;17.03;50.07;102201.00;5091782;28;20047;-41
2021/04/01 11:03:01;;;;;;;64.10;45.80;;;;;;;16.97;49.60;102220.03;5091478;28;20040;-41
2021/04/01 11:05:28;;;;;;;62.78;45.92;;;;;;;16.91;49.93;102217.44;5091350;28;20024;-40
2021/04/01 11:08:21;;;;;;;67.63;46.63;;;;;;;16.99;50.20;102211.63;5091310;28;20036;-41
2021/04/01 11:10:59;;;;;;;59.33;41.95;;;;;;;17.08;49.16;102218.38;5132286;27;20045;-41
2021/04/01 11:13:33;;;;;;;62.35;43.30;;;;;;;17.13;49.62;102229.41;5134331;27;20030;-41
2021/04/01 11:16:02;;;;;;;58.05;41.03;;;;;;;16.96;49.31;102217.56;5135047;27;20024;-41
2021/04/01 11:18:28;;;;;;;56.50;39.92;;;;;;;17.03;50.28;102217.41;5134203;27;20038;-41
2021/04/01 11:20:54;;;;;;;;;;;;;;;17.23;49.67;102212.41;5134667;27;20027;-41
2021/04/01 11:23:22;;;;;;;53.65;37.95;;;;;;;17.12;49.76;102224.16;5134480;27;19908;-41
2021/04/01 11:25:54;;;;;;;52.03;37.95;;;;;;;17.20;50.62;102218.34;5138738;27;20023;-41
2021/04/01 11:28:39;;;;;;;50.85;34.72;;;;;;;17.33;49.37;102223.53;5138472;27;20471;-41
2021/04/01 11:31:07;;;;;;;45.08;32.35;;;;;;;17.30;49.71;102225.91;5139180;27;20061;-41
2021/04/01 11:33:32;;;;;;;44.17;32.90;;;;;;;17.37;49.54;102224.72;5137199;27;20398;-41
2021/04/01 11:36:21;;;;;;;47.05;33.25;;;;;;;17.55;48.98;102234.63;5138780;27;20023;-42
2021/04/01 11:38:52;;;;;;;46.80;30.50;;;;;;;17.50;47.84;102223.56;5138249;27;20114;-42
2021/04/01 11:41:20;;;;;;;39.13;28.48;;;;;;;17.56;48.20;102225.34;5138478;27;20023;-41
2021/04/01 11:43:53;;;;;;;35.55;25.52;;;;;;;17.47;48.14;102224.06;5138443;27;20066;-42
2021/04/01 11:46:26;;;;;;;35.50;23.83;;;;;;;17.69;48.05;102226.94;5138674;27;20113;-41
2021/04/01 11:48:52;;;;;;;36.25;22.25;;;;;;;17.71;48.01;102225.66;5138256;27;20031;-42
2021/04/01 11:51:26;;;;;;;30.55;22.45;;;;;;;17.77;47.59;102233.97;5138593;27;20054;-41
2021/04/01 11:53:52;;;;;;;29.75;19.98;;;;;;;17.84;47.27;102220.97;5138509;27;20087;-41
2021/04/01 11:56:19;;;;;;;28.15;18.38;;;;;;;17.91;45.96;102227.09;5138127;27;20027;-41
2021/04/01 11:58:45;;;;;;;26.35;16.10;;;;;;;18.00;46.64;102228.34;5138389;27;20043;-41
2021/04/01 12:01:14;;;;;;;;;;;;;;;18.27;47.05;102236.75;5138810;27;20023;-42
2021/04/01 12:03:50;;;;;;;18.70;10.23;;;;;;;18.19;44.17;102234.44;5137984;27;19918;-41
2021/04/01 12:06:16;;;;;;;17.83;9.90;;;;;;;18.22;45.25;102226.56;5138000;27;20109;-41
2021/04/01 12:08:42;;;;;;;10.52;6.93;;;;;;;18.21;44.46;102232.28;5137870;27;20526;-41
2021/04/01 12:11:07;;;;;;;;;;;;;;;18.42;44.24;102227.97;5138151;27;20031;-41
2021/04/01 12:13:32;;;;;;;11.48;5.30;;;;;;;18.33;43.59;102226.72;5137605;27;19919;-41
2021/04/01 12:15:58;;;;;;;;;;;;;;;18.58;43.97;102227.09;5138224;27;20030;-41
2021/04/01 12:18:25;;;;;;;14.40;5.70;;;;;;;18.31;42.75;102229.72;5137776;27;19912;-41
2021/04/01 12:20:51;;;;;;;12.45;5.63;;;;;;;18.25;41.94;102238.91;5138522;27;20019;-41
2021/04/01 12:23:21;;;;;;;13.98;5.00;;;;;;;18.16;42.20;102227.56;5138184;27;20348;-41
2021/04/01 12:25:47;;;;;;;9.70;4.63;;;;;;;18.10;42.61;102233.19;5138137;27;20019;-41
2021/04/01 12:28:18;;;;;;;12.80;5.50;;;;;;;18.30;42.34;102228.06;5137491;27;20023;-41
2021/04/01 12:30:49;;;;;;;13.00;5.22;;;;;;;18.24;42.69;102227.13;5138014;27;20019;-41
2021/04/01 12:33:22;;;;;;;10.48;5.07;;;;;;;18.14;42.29;102231.59;5137772;27;20126;-41
2021/04/01 12:35:57;;;;;;;9.52;4.72;;;;;;;18.33;43.04;102232.19;5136801;27;20031;-41
2021/04/01 12:38:25;;;;;;;10.18;4.28;;;;;;;18.52;42.44;102233.59;5137295;27;20031;-41
2021/04/01 12:40:51;;;;;;;11.82;5.10;;;;;;;18.51;42.40;102235.50;5137287;27;20087;-41
2021/04/01 12:43:16;;;;;;;8.82;4.68;;;;;;;18.26;42.42;102232.38;5137767;27;20031;-41
2021/04/01 12:45:41;;;;;;;13.82;4.53;;;;;;;17.98;43.46;102230.53;5136908;27;20042;-41
2021/04/01 12:48:10;;;;;;;;;;;;;;;18.23;44.77;102241.91;5137605;27;20055;-41
2021/04/01 12:50:38;;;;;;;10.43;4.90;;;;;;;18.24;44.42;102238.06;5137882;27;19908;-41
2021/04/01 12:53:05;;;;;;;8.93;3.58;;;;;;;18.37;44.47;102239.66;5137596;27;20486;-41